sensor_id;sensor_type;location;lat;lon;timestamp;temperature;humidity
4293;DHT22;2160;51.172;6.808;2023-03-23T05:00:58;14.50;99.90
4293;DHT22;2160;51.172;6.808;2023-03-23T05:03:26;14.40;99.90
4293;DHT22;2160;51.172;6.808;2023-03-23T05:05:55;14.50;99.90
4293;DHT22;2160;51.172;6.808;2023-03-23T05:08:24;14.40;99.90
4293;DHT22;2160;51.172;6.808;2023-03-23T05:10:52;14.40;99.90
4293;DHT22;2160;51.172;6.808;2023-03-23T05:13:21;14.50;99.90
4293;DHT22;2160;51.172;6.808;2023-03-23T05:15:52;14.40;99.90
4293;DHT22;2160;51.172;6.808;2023-03-23T05:18:21;14.50;99.90
4293;DHT22;2160;51.172;6.808;2023-03-23T05:20:48;14.60;99.90
4293;DHT22;2160;51.172;6.808;2023-03-23T05:23:19;14.70;99.90
4293;DHT22;2160;51.172;6.808;2023-03-23T05:25:58;14.80;99.90
4293;DHT22;2160;51.172;6.808;2023-03-23T05:28:28;14.70;99.90
4293;DHT22;2160;51.172;6.808;2023-03-23T05:31:07;14.70;99.90
4293;DHT22;2160;51.172;6.808;2023-03-23T05:33:35;14.70;99.90
4293;DHT22;2160;51.172;6.808;2023-03-23T05:36:20;14.70;99.90
4293;DHT22;2160;51.172;6.808;2023-03-23T05:39:12;14.70;99.90
4293;DHT22;2160;51.172;6.808;2023-03-23T05:42:07;14.50;99.90
4293;DHT22;2160;51.172;6.808;2023-03-23T05:45:01;14.50;99.90
4293;DHT22;2160;51.172;6.808;2023-03-23T05:47:28;14.60;99.90
4293;DHT22;2160;51.172;6.808;2023-03-23T05:50:03;14.60;99.90
4293;DHT22;2160;51.172;6.808;2023-03-23T05:52:32;14.70;99.90
4293;DHT22;2160;51.172;6.808;2023-03-23T05:55:02;14.80;99.90
4293;DHT22;2160;51.172;6.808;2023-03-23T05:57:32;14.80;99.90
4293;DHT22;2160;51.172;6.808;2023-03-23T06:00:06;14.80;99.90
4293;DHT22;2160;51.172;6.808;2023-03-23T06:02:47;14.90;99.90
4293;DHT22;2160;51.172;6.808;2023-03-23T06:05:23;15.00;99.90
4293;DHT22;2160;51.172;6.808;2023-03-23T06:07:53;14.80;99.90
4293;DHT22;2160;51.172;6.808;2023-03-23T06:10:21;15.00;99.90
4293;DHT22;2160;51.172;6.808;2023-03-23T06:12:56;15.00;99.90
4293;DHT22;2160;51.172;6.808;2023-03-23T06:15:31;15.00;99.90
4293;DHT22;2160;51.172;6.808;2023-03-23T06:18:16;14.90;99.90
4293;DHT22;2160;51.172;6.808;2023-03-23T06:21:06;15.00;99.90
4293;DHT22;2160;51.172;6.808;2023-03-23T06:23:51;15.10;99.90
4293;DHT22;2160;51.172;6.808;2023-03-23T06:26:20;15.00;99.90
4293;DHT22;2160;51.172;6.808;2023-03-23T06:28:52;15.00;99.90
4293;DHT22;2160;51.172;6.808;2023-03-23T06:31:20;14.80;99.90
4293;DHT22;2160;51.172;6.808;2023-03-23T06:33:49;14.80;99.90
4293;DHT22;2160;51.172;6.808;2023-03-23T06:36:35;15.00;99.90
4293;DHT22;2160;51.172;6.808;2023-03-23T06:39:13;15.00;99.90
4293;DHT22;2160;51.172;6.808;2023-03-23T06:41:57;14.90;99.90
4293;DHT22;2160;51.172;6.808;2023-03-23T06:44:25;14.90;99.90
4293;DHT22;2160;51.172;6.808;2023-03-23T06:46:53;15.10;99.90
4293;DHT22;2160;51.172;6.808;2023-03-23T06:49:25;15.00;99.90
4293;DHT22;2160;51.172;6.808;2023-03-23T06:52:02;15.10;99.90
4293;DHT22;2160;51.172;6.808;2023-03-23T06:54:31;15.10;99.90
4293;DHT22;2160;51.172;6.808;2023-03-23T06:57:00;15.10;99.90
4293;DHT22;2160;51.172;6.808;2023-03-23T06:59:27;15.20;99.90
4293;DHT22;2160;51.172;6.808;2023-03-23T07:01:54;15.10;99.90
4293;DHT22;2160;51.172;6.808;2023-03-23T07:04:22;15.10;99.90
4293;DHT22;2160;51.172;6.808;2023-03-23T07:07:02;15.20;99.90
4293;DHT22;2160;51.172;6.808;2023-03-23T07:09:35;15.10;99.90
4293;DHT22;2160;51.172;6.808;2023-03-23T07:12:02;15.20;99.90
4293;DHT22;2160;51.172;6.808;2023-03-23T07:14:36;15.10;99.90
4293;DHT22;2160;51.172;6.808;2023-03-23T07:17:03;15.10;99.90
4293;DHT22;2160;51.172;6.808;2023-03-23T07:19:34;15.10;99.90
4293;DHT22;2160;51.172;6.808;2023-03-23T07:22:04;15.10;99.90
4293;DHT22;2160;51.172;6.808;2023-03-23T07:24:31;15.20;99.90
4293;DHT22;2160;51.172;6.808;2023-03-23T07:27:12;15.30;99.90
4293;DHT22;2160;51.172;6.808;2023-03-23T07:29:41;15.30;99.90
4293;DHT22;2160;51.172;6.808;2023-03-23T07:32:15;15.30;99.90
4293;DHT22;2160;51.172;6.808;2023-03-23T07:34:44;15.30;99.90
4293;DHT22;2160;51.172;6.808;2023-03-23T07:37:24;15.40;99.90
4293;DHT22;2160;51.172;6.808;2023-03-23T07:39:51;15.40;99.90
4293;DHT22;2160;51.172;6.808;2023-03-23T07:42:18;15.20;99.90
4293;DHT22;2160;51.172;6.808;2023-03-23T07:44:54;15.20;99.90
4293;DHT22;2160;51.172;6.808;2023-03-23T07:47:21;15.30;99.90
4293;DHT22;2160;51.172;6.808;2023-03-23T07:49:49;15.20;99.90
4293;DHT22;2160;51.172;6.808;2023-03-23T07:52:28;15.30;99.90
4293;DHT22;2160;51.172;6.808;2023-03-23T07:54:55;15.20;99.90
4293;DHT22;2160;51.172;6.808;2023-03-23T07:57:46;15.30;99.90
4293;DHT22;2160;51.172;6.808;2023-03-23T08:00:14;15.30;99.90
4293;DHT22;2160;51.172;6.808;2023-03-23T08:02:45;15.30;99.90
4293;DHT22;2160;51.172;6.808;2023-03-23T08:05:42;15.40;99.90
4293;DHT22;2160;51.172;6.808;2023-03-23T08:08:46;15.40;99.90
4293;DHT22;2160;51.172;6.808;2023-03-23T08:11:33;15.50;99.90
4293;DHT22;2160;51.172;6.808;2023-03-23T08:14:15;15.50;99.90
4293;DHT22;2160;51.172;6.808;2023-03-23T08:17:21;15.50;99.90
4293;DHT22;2160;51.172;6.808;2023-03-23T08:20:09;15.70;99.90
4293;DHT22;2160;51.172;6.808;2023-03-23T08:23:17;15.60;99.90
4293;DHT22;2160;51.172;6.808;2023-03-23T08:26:05;15.70;99.90
4293;DHT22;2160;51.172;6.808;2023-03-23T08:28:53;15.90;99.90
4293;DHT22;2160;51.172;6.808;2023-03-23T08:31:20;15.90;99.90
4293;DHT22;2160;51.172;6.808;2023-03-23T08:34:17;15.90;99.90
4293;DHT22;2160;51.172;6.808;2023-03-23T08:37:07;15.80;99.90
4293;DHT22;2160;51.172;6.808;2023-03-23T08:39:51;15.70;99.90
4293;DHT22;2160;51.172;6.808;2023-03-23T08:42:41;15.70;99.90
4293;DHT22;2160;51.172;6.808;2023-03-23T08:45:35;15.80;99.90
4293;DHT22;2160;51.172;6.808;2023-03-23T08:48:34;15.80;99.90
4293;DHT22;2160;51.172;6.808;2023-03-23T08:51:34;15.80;99.90
4293;DHT22;2160;51.172;6.808;2023-03-23T08:54:25;16.00;99.90
4293;DHT22;2160;51.172;6.808;2023-03-23T08:57:17;16.00;99.90
4293;DHT22;2160;51.172;6.808;2023-03-23T09:00:20;15.90;99.90
4293;DHT22;2160;51.172;6.808;2023-03-23T09:03:25;16.00;99.90
4293;DHT22;2160;51.172;6.808;2023-03-23T09:06:19;15.90;99.90
4293;DHT22;2160;51.172;6.808;2023-03-23T09:08:46;15.80;99.90
4293;DHT22;2160;51.172;6.808;2023-03-23T09:11:14;15.70;99.90
4293;DHT22;2160;51.172;6.808;2023-03-23T09:13:41;15.80;99.90
4293;DHT22;2160;51.172;6.808;2023-03-23T09:16:09;15.80;99.90
4293;DHT22;2160;51.172;6.808;2023-03-23T09:18:36;15.80;99.90
4293;DHT22;2160;51.172;6.808;2023-03-23T09:21:04;15.90;99.90
4293;DHT22;2160;51.172;6.808;2023-03-23T09:23:32;16.00;99.90
4293;DHT22;2160;51.172;6.808;2023-03-23T09:26:00;16.10;99.90
4293;DHT22;2160;51.172;6.808;2023-03-23T09:28:28;16.10;99.90
4293;DHT22;2160;51.172;6.808;2023-03-23T09:30:56;16.10;99.90
4293;DHT22;2160;51.172;6.808;2023-03-23T09:33:26;16.10;99.90
4293;DHT22;2160;51.172;6.808;2023-03-23T09:35:54;16.20;99.90
4293;DHT22;2160;51.172;6.808;2023-03-23T09:38:21;16.20;99.90
4293;DHT22;2160;51.172;6.808;2023-03-23T09:40:50;16.10;99.90
4293;DHT22;2160;51.172;6.808;2023-03-23T09:43:39;16.20;99.90
4293;DHT22;2160;51.172;6.808;2023-03-23T09:46:29;16.30;99.90
4293;DHT22;2160;51.172;6.808;2023-03-23T09:49:01;16.10;99.90
4293;DHT22;2160;51.172;6.808;2023-03-23T09:51:39;16.00;99.90
4293;DHT22;2160;51.172;6.808;2023-03-23T09:54:12;15.90;99.90
4293;DHT22;2160;51.172;6.808;2023-03-23T09:56:41;15.90;99.90
4293;DHT22;2160;51.172;6.808;2023-03-23T09:59:12;15.90;99.90
4293;DHT22;2160;51.172;6.808;2023-03-23T10:01:44;16.00;99.90
4293;DHT22;2160;51.172;6.808;2023-03-23T10:04:23;16.00;99.90
4293;DHT22;2160;51.172;6.808;2023-03-23T10:06:52;16.10;99.90
4293;DHT22;2160;51.172;6.808;2023-03-23T10:09:20;16.20;99.90
4293;DHT22;2160;51.172;6.808;2023-03-23T10:11:55;16.10;99.90
4293;DHT22;2160;51.172;6.808;2023-03-23T10:14:32;16.00;99.90
4293;DHT22;2160;51.172;6.808;2023-03-23T10:17:11;16.00;99.90
4293;DHT22;2160;51.172;6.808;2023-03-23T10:19:46;15.70;99.90
4293;DHT22;2160;51.172;6.808;2023-03-23T10:22:19;14.90;99.90
4293;DHT22;2160;51.172;6.808;2023-03-23T10:24:51;14.40;99.90
4293;DHT22;2160;51.172;6.808;2023-03-23T10:27:26;14.00;99.90
4293;DHT22;2160;51.172;6.808;2023-03-23T10:29:57;13.80;99.90
4293;DHT22;2160;51.172;6.808;2023-03-23T10:32:40;13.70;99.90
4293;DHT22;2160;51.172;6.808;2023-03-23T10:35:14;14.10;99.90
4293;DHT22;2160;51.172;6.808;2023-03-23T10:37:47;14.20;99.90
4293;DHT22;2160;51.172;6.808;2023-03-23T10:40:23;14.30;99.90
4293;DHT22;2160;51.172;6.808;2023-03-23T10:42:53;14.50;99.90
4293;DHT22;2160;51.172;6.808;2023-03-23T10:45:33;14.60;99.90
4293;DHT22;2160;51.172;6.808;2023-03-23T10:48:12;14.60;99.90
4293;DHT22;2160;51.172;6.808;2023-03-23T10:50:57;14.60;99.90
4293;DHT22;2160;51.172;6.808;2023-03-23T10:53:44;14.50;99.90
4293;DHT22;2160;51.172;6.808;2023-03-23T10:56:25;14.50;99.90
4293;DHT22;2160;51.172;6.808;2023-03-23T10:59:15;14.50;99.90
4293;DHT22;2160;51.172;6.808;2023-03-23T11:01:52;14.50;99.90
4293;DHT22;2160;51.172;6.808;2023-03-23T11:04:28;14.60;99.90
4293;DHT22;2160;51.172;6.808;2023-03-23T11:07:05;14.50;99.90
4293;DHT22;2160;51.172;6.808;2023-03-23T11:09:52;14.80;99.90
4293;DHT22;2160;51.172;6.808;2023-03-23T11:12:24;15.00;99.90
4293;DHT22;2160;51.172;6.808;2023-03-23T11:15:26;15.00;99.90
4293;DHT22;2160;51.172;6.808;2023-03-23T11:18:41;15.10;99.90
4293;DHT22;2160;51.172;6.808;2023-03-23T11:21:36;15.20;99.90
4293;DHT22;2160;51.172;6.808;2023-03-23T11:24:40;15.20;99.90
4293;DHT22;2160;51.172;6.808;2023-03-23T11:27:48;15.00;99.90
4293;DHT22;2160;51.172;6.808;2023-03-23T11:30:55;15.10;99.90
4293;DHT22;2160;51.172;6.808;2023-03-23T11:34:04;14.70;99.90
4293;DHT22;2160;51.172;6.808;2023-03-23T11:37:07;15.00;99.90
4293;DHT22;2160;51.172;6.808;2023-03-23T12:43:38;15.00;99.90
4293;DHT22;2160;51.172;6.808;2023-03-23T12:47:18;15.50;99.90
4293;DHT22;2160;51.172;6.808;2023-03-23T12:54:29;15.90;99.90
4293;DHT22;2160;51.172;6.808;2023-03-23T13:01:32;16.10;99.90
4293;DHT22;2160;51.172;6.808;2023-03-23T13:04:30;16.50;99.90
4293;DHT22;2160;51.172;6.808;2023-03-23T13:07:53;16.70;99.90
4293;DHT22;2160;51.172;6.808;2023-03-23T13:12:02;16.80;99.90
4293;DHT22;2160;51.172;6.808;2023-03-23T13:14:56;16.90;99.90
4293;DHT22;2160;51.172;6.808;2023-03-23T13:18:01;16.80;99.90
4293;DHT22;2160;51.172;6.808;2023-03-23T13:20:52;16.80;99.90
4293;DHT22;2160;51.172;6.808;2023-03-23T13:23:27;16.90;99.90
4293;DHT22;2160;51.172;6.808;2023-03-23T13:26:29;17.00;99.90
4293;DHT22;2160;51.172;6.808;2023-03-23T13:29:28;17.00;99.90
4293;DHT22;2160;51.172;6.808;2023-03-23T13:32:12;17.10;99.90
4293;DHT22;2160;51.172;6.808;2023-03-23T13:34:55;17.10;99.90
4293;DHT22;2160;51.172;6.808;2023-03-23T13:37:43;17.00;99.90
4293;DHT22;2160;51.172;6.808;2023-03-23T13:40:24;17.00;99.90
4293;DHT22;2160;51.172;6.808;2023-03-23T13:42:55;16.80;99.90
4293;DHT22;2160;51.172;6.808;2023-03-23T13:45:42;16.60;99.90
4293;DHT22;2160;51.172;6.808;2023-03-23T13:48:20;16.50;99.90
4293;DHT22;2160;51.172;6.808;2023-03-23T13:50:57;16.40;99.90
4293;DHT22;2160;51.172;6.808;2023-03-23T13:53:43;16.40;99.90
4293;DHT22;2160;51.172;6.808;2023-03-23T13:56:35;16.10;99.90
4293;DHT22;2160;51.172;6.808;2023-03-23T13:59:14;16.10;99.90
4293;DHT22;2160;51.172;6.808;2023-03-23T14:01:44;15.80;99.90
4293;DHT22;2160;51.172;6.808;2023-03-23T14:04:15;15.60;99.90
4293;DHT22;2160;51.172;6.808;2023-03-23T14:06:45;15.50;99.90
4293;DHT22;2160;51.172;6.808;2023-03-23T14:09:30;15.40;99.90
4293;DHT22;2160;51.172;6.808;2023-03-23T14:12:00;15.30;99.90
4293;DHT22;2160;51.172;6.808;2023-03-23T14:14:34;15.40;99.90
4293;DHT22;2160;51.172;6.808;2023-03-23T14:17:07;15.20;99.90
4293;DHT22;2160;51.172;6.808;2023-03-23T14:19:38;15.30;99.90
4293;DHT22;2160;51.172;6.808;2023-03-23T14:22:18;15.40;99.90
4293;DHT22;2160;51.172;6.808;2023-03-23T14:24:46;15.50;99.90
4293;DHT22;2160;51.172;6.808;2023-03-23T14:27:16;15.50;99.90
4293;DHT22;2160;51.172;6.808;2023-03-23T14:29:43;15.50;99.90
4293;DHT22;2160;51.172;6.808;2023-03-23T14:32:15;15.70;99.90
4293;DHT22;2160;51.172;6.808;2023-03-23T14:34:46;15.80;99.90
4293;DHT22;2160;51.172;6.808;2023-03-23T14:37:16;16.00;99.90
4293;DHT22;2160;51.172;6.808;2023-03-23T14:39:45;16.10;99.90
4293;DHT22;2160;51.172;6.808;2023-03-23T14:42:14;15.90;99.90
4293;DHT22;2160;51.172;6.808;2023-03-23T14:44:43;15.90;99.90
4293;DHT22;2160;51.172;6.808;2023-03-23T14:47:18;15.90;99.90
4293;DHT22;2160;51.172;6.808;2023-03-23T14:49:53;16.00;99.90
4293;DHT22;2160;51.172;6.808;2023-03-23T14:52:24;16.10;99.90
4293;DHT22;2160;51.172;6.808;2023-03-23T14:54:52;15.80;99.90
4293;DHT22;2160;51.172;6.808;2023-03-23T14:57:25;15.70;99.90
4293;DHT22;2160;51.172;6.808;2023-03-23T14:59:53;15.60;99.90
4293;DHT22;2160;51.172;6.808;2023-03-23T15:02:24;15.50;99.90
4293;DHT22;2160;51.172;6.808;2023-03-23T15:04:54;15.60;99.90
4293;DHT22;2160;51.172;6.808;2023-03-23T15:07:29;15.60;99.90
4293;DHT22;2160;51.172;6.808;2023-03-23T15:09:57;15.50;99.90
4293;DHT22;2160;51.172;6.808;2023-03-23T15:12:28;15.60;99.90
4293;DHT22;2160;51.172;6.808;2023-03-23T15:14:58;15.80;99.90
4293;DHT22;2160;51.172;6.808;2023-03-23T15:17:27;15.80;99.90
4293;DHT22;2160;51.172;6.808;2023-03-23T15:19:55;16.00;99.90
4293;DHT22;2160;51.172;6.808;2023-03-23T15:22:26;16.10;99.90
4293;DHT22;2160;51.172;6.808;2023-03-23T15:25:03;16.10;99.90
4293;DHT22;2160;51.172;6.808;2023-03-23T15:27:32;16.30;99.90
4293;DHT22;2160;51.172;6.808;2023-03-23T15:30:13;16.50;99.90
4293;DHT22;2160;51.172;6.808;2023-03-23T15:32:42;16.40;99.90
4293;DHT22;2160;51.172;6.808;2023-03-23T15:35:13;16.50;99.90
4293;DHT22;2160;51.172;6.808;2023-03-23T15:37:44;16.60;99.90
4293;DHT22;2160;51.172;6.808;2023-03-23T15:40:15;16.50;99.90
4293;DHT22;2160;51.172;6.808;2023-03-23T15:42:43;16.50;99.90
4293;DHT22;2160;51.172;6.808;2023-03-23T15:45:23;16.60;99.90
4293;DHT22;2160;51.172;6.808;2023-03-23T15:47:51;16.70;99.90
4293;DHT22;2160;51.172;6.808;2023-03-23T15:50:32;16.70;99.90
4293;DHT22;2160;51.172;6.808;2023-03-23T15:53:04;16.60;99.90
4293;DHT22;2160;51.172;6.808;2023-03-23T15:55:37;16.80;99.90
4293;DHT22;2160;51.172;6.808;2023-03-23T15:58:09;16.70;99.90
4293;DHT22;2160;51.172;6.808;2023-03-23T16:00:37;16.90;99.90
4293;DHT22;2160;51.172;6.808;2023-03-23T16:03:06;17.00;99.90
4293;DHT22;2160;51.172;6.808;2023-03-23T16:05:35;16.90;99.90
4293;DHT22;2160;51.172;6.808;2023-03-23T16:08:03;16.70;99.90
4293;DHT22;2160;51.172;6.808;2023-03-23T16:10:30;16.60;99.90
4293;DHT22;2160;51.172;6.808;2023-03-23T16:12:57;16.80;99.90
4293;DHT22;2160;51.172;6.808;2023-03-23T16:15:24;16.80;99.90
4293;DHT22;2160;51.172;6.808;2023-03-23T16:17:52;16.90;99.90
4293;DHT22;2160;51.172;6.808;2023-03-23T16:20:20;16.80;99.90
4293;DHT22;2160;51.172;6.808;2023-03-23T16:22:49;17.00;99.90
4293;DHT22;2160;51.172;6.808;2023-03-23T16:25:18;17.10;99.90
4293;DHT22;2160;51.172;6.808;2023-03-23T16:27:45;17.10;99.90
4293;DHT22;2160;51.172;6.808;2023-03-23T16:30:17;17.10;99.90
4293;DHT22;2160;51.172;6.808;2023-03-23T16:32:45;17.20;99.90
4293;DHT22;2160;51.172;6.808;2023-03-23T16:35:12;17.20;99.90
4293;DHT22;2160;51.172;6.808;2023-03-23T16:37:44;16.90;99.90
4293;DHT22;2160;51.172;6.808;2023-03-23T16:40:12;16.70;99.90
4293;DHT22;2160;51.172;6.808;2023-03-23T16:42:41;16.80;99.90
4293;DHT22;2160;51.172;6.808;2023-03-23T16:45:08;16.70;99.90
4293;DHT22;2160;51.172;6.808;2023-03-23T16:47:37;16.70;99.90
4293;DHT22;2160;51.172;6.808;2023-03-23T16:50:06;16.90;99.90
4293;DHT22;2160;51.172;6.808;2023-03-23T16:52:35;17.00;99.90
4293;DHT22;2160;51.172;6.808;2023-03-23T16:55:03;17.00;99.90
4293;DHT22;2160;51.172;6.808;2023-03-23T16:57:31;16.80;99.90
4293;DHT22;2160;51.172;6.808;2023-03-23T17:00:01;16.80;99.90
4293;DHT22;2160;51.172;6.808;2023-03-23T17:02:28;17.00;99.90
4293;DHT22;2160;51.172;6.808;2023-03-23T17:04:55;17.00;99.90
4293;DHT22;2160;51.172;6.808;2023-03-23T17:07:23;16.90;99.90
4293;DHT22;2160;51.172;6.808;2023-03-23T17:09:50;16.90;99.90
4293;DHT22;2160;51.172;6.808;2023-03-23T17:12:17;16.90;99.90
4293;DHT22;2160;51.172;6.808;2023-03-23T17:14:44;17.10;99.90
4293;DHT22;2160;51.172;6.808;2023-03-23T17:17:13;17.20;99.90
4293;DHT22;2160;51.172;6.808;2023-03-23T17:19:40;17.30;99.90
4293;DHT22;2160;51.172;6.808;2023-03-23T17:22:07;17.20;99.90
4293;DHT22;2160;51.172;6.808;2023-03-23T17:24:34;17.30;99.90
4293;DHT22;2160;51.172;6.808;2023-03-23T17:27:01;17.30;99.90
4293;DHT22;2160;51.172;6.808;2023-03-23T17:29:28;17.20;99.90
4293;DHT22;2160;51.172;6.808;2023-03-23T17:31:55;17.00;99.90
4293;DHT22;2160;51.172;6.808;2023-03-23T17:34:23;16.70;99.90
4293;DHT22;2160;51.172;6.808;2023-03-23T17:36:50;16.80;99.90
4293;DHT22;2160;51.172;6.808;2023-03-23T17:39:17;16.60;99.90
4293;DHT22;2160;51.172;6.808;2023-03-23T17:41:44;16.60;99.90
4293;DHT22;2160;51.172;6.808;2023-03-23T17:44:11;16.60;99.90
4293;DHT22;2160;51.172;6.808;2023-03-23T17:46:38;16.50;99.90
4293;DHT22;2160;51.172;6.808;2023-03-23T17:49:05;16.50;99.90
4293;DHT22;2160;51.172;6.808;2023-03-23T17:51:34;16.50;99.90
4293;DHT22;2160;51.172;6.808;2023-03-23T17:54:01;16.50;99.90
4293;DHT22;2160;51.172;6.808;2023-03-23T17:56:28;16.30;99.90
4293;DHT22;2160;51.172;6.808;2023-03-23T17:58:55;16.30;99.90
4293;DHT22;2160;51.172;6.808;2023-03-23T18:01:22;16.30;99.90
4293;DHT22;2160;51.172;6.808;2023-03-23T18:03:50;16.40;99.90
4293;DHT22;2160;51.172;6.808;2023-03-23T18:06:17;16.30;99.90
4293;DHT22;2160;51.172;6.808;2023-03-23T18:08:46;16.30;99.90
4293;DHT22;2160;51.172;6.808;2023-03-23T18:11:13;16.40;99.90
4293;DHT22;2160;51.172;6.808;2023-03-23T18:13:40;16.30;99.90
4293;DHT22;2160;51.172;6.808;2023-03-23T18:16:08;16.20;99.90
4293;DHT22;2160;51.172;6.808;2023-03-23T18:18:35;16.20;99.90
4293;DHT22;2160;51.172;6.808;2023-03-23T18:21:04;16.20;99.90
4293;DHT22;2160;51.172;6.808;2023-03-23T18:23:33;16.30;99.90
4293;DHT22;2160;51.172;6.808;2023-03-23T18:26:03;16.30;99.90
4293;DHT22;2160;51.172;6.808;2023-03-23T18:28:30;16.30;99.90
4293;DHT22;2160;51.172;6.808;2023-03-23T18:31:02;16.10;99.90
4293;DHT22;2160;51.172;6.808;2023-03-23T18:33:29;16.10;99.90
4293;DHT22;2160;51.172;6.808;2023-03-23T18:35:56;16.20;99.90
4293;DHT22;2160;51.172;6.808;2023-03-23T18:38:24;16.10;99.90
4293;DHT22;2160;51.172;6.808;2023-03-23T18:40:51;16.30;99.90
4293;DHT22;2160;51.172;6.808;2023-03-23T18:43:20;16.10;99.90
4293;DHT22;2160;51.172;6.808;2023-03-23T18:45:48;16.10;99.90
4293;DHT22;2160;51.172;6.808;2023-03-23T18:48:16;16.00;99.90
4293;DHT22;2160;51.172;6.808;2023-03-23T18:50:45;16.10;99.90
4293;DHT22;2160;51.172;6.808;2023-03-23T18:53:14;16.00;99.90
4293;DHT22;2160;51.172;6.808;2023-03-23T18:55:41;15.80;99.90
4293;DHT22;2160;51.172;6.808;2023-03-23T18:58:08;15.90;99.90
4293;DHT22;2160;51.172;6.808;2023-03-23T19:00:37;16.00;99.90
4293;DHT22;2160;51.172;6.808;2023-03-23T19:03:05;16.00;99.90
4293;DHT22;2160;51.172;6.808;2023-03-23T19:05:35;16.10;99.90
4293;DHT22;2160;51.172;6.808;2023-03-23T19:08:03;16.00;99.90
4293;DHT22;2160;51.172;6.808;2023-03-23T19:10:33;15.80;99.90
4293;DHT22;2160;51.172;6.808;2023-03-23T19:13:01;15.50;99.90
4293;DHT22;2160;51.172;6.808;2023-03-23T19:15:28;15.60;99.90
4293;DHT22;2160;51.172;6.808;2023-03-23T19:17:57;15.70;99.90
4293;DHT22;2160;51.172;6.808;2023-03-23T19:20:25;15.70;99.90
4293;DHT22;2160;51.172;6.808;2023-03-23T19:22:52;15.60;99.90
4293;DHT22;2160;51.172;6.808;2023-03-23T19:25:19;15.60;99.90
4293;DHT22;2160;51.172;6.808;2023-03-23T19:27:46;15.60;99.90
4293;DHT22;2160;51.172;6.808;2023-03-23T19:30:13;15.70;99.90
4293;DHT22;2160;51.172;6.808;2023-03-23T19:32:40;15.70;99.90
4293;DHT22;2160;51.172;6.808;2023-03-23T19:35:08;15.70;99.90
4293;DHT22;2160;51.172;6.808;2023-03-23T19:37:35;15.80;99.90
4293;DHT22;2160;51.172;6.808;2023-03-23T19:40:03;15.80;99.90
4293;DHT22;2160;51.172;6.808;2023-03-23T19:42:31;15.70;99.90
4293;DHT22;2160;51.172;6.808;2023-03-23T19:44:58;15.70;99.90
4293;DHT22;2160;51.172;6.808;2023-03-23T19:47:26;15.60;99.90
4293;DHT22;2160;51.172;6.808;2023-03-23T19:49:53;15.70;99.90
4293;DHT22;2160;51.172;6.808;2023-03-23T19:52:22;15.70;99.90
4293;DHT22;2160;51.172;6.808;2023-03-23T19:54:49;15.70;99.90
4293;DHT22;2160;51.172;6.808;2023-03-23T19:57:16;15.70;99.90
4293;DHT22;2160;51.172;6.808;2023-03-23T19:59:43;15.70;99.90
4293;DHT22;2160;51.172;6.808;2023-03-23T20:02:11;15.60;99.90
4293;DHT22;2160;51.172;6.808;2023-03-23T20:04:38;15.70;99.90
4293;DHT22;2160;51.172;6.808;2023-03-23T20:07:05;15.60;99.90
4293;DHT22;2160;51.172;6.808;2023-03-23T20:09:34;15.60;99.90
4293;DHT22;2160;51.172;6.808;2023-03-23T20:12:02;15.80;99.90
4293;DHT22;2160;51.172;6.808;2023-03-23T20:14:29;15.90;99.90
4293;DHT22;2160;51.172;6.808;2023-03-23T20:16:56;15.90;99.90
4293;DHT22;2160;51.172;6.808;2023-03-23T20:19:23;15.80;99.90
4293;DHT22;2160;51.172;6.808;2023-03-23T20:21:50;15.70;99.90
4293;DHT22;2160;51.172;6.808;2023-03-23T20:24:17;15.80;99.90
4293;DHT22;2160;51.172;6.808;2023-03-23T20:26:45;15.80;99.90
4293;DHT22;2160;51.172;6.808;2023-03-23T20:29:12;15.70;99.90
4293;DHT22;2160;51.172;6.808;2023-03-23T20:31:40;15.60;99.90
4293;DHT22;2160;51.172;6.808;2023-03-23T20:34:10;15.60;99.90
4293;DHT22;2160;51.172;6.808;2023-03-23T20:36:39;15.50;99.90
4293;DHT22;2160;51.172;6.808;2023-03-23T20:39:08;15.70;99.90
4293;DHT22;2160;51.172;6.808;2023-03-23T20:41:37;15.70;99.90
4293;DHT22;2160;51.172;6.808;2023-03-23T20:44:07;15.80;99.90
4293;DHT22;2160;51.172;6.808;2023-03-23T20:46:38;15.80;99.90
4293;DHT22;2160;51.172;6.808;2023-03-23T20:49:05;15.80;99.90
4293;DHT22;2160;51.172;6.808;2023-03-23T20:51:33;15.70;99.90
4293;DHT22;2160;51.172;6.808;2023-03-23T20:54:00;15.70;99.90
4293;DHT22;2160;51.172;6.808;2023-03-23T20:56:28;15.80;99.90
4293;DHT22;2160;51.172;6.808;2023-03-23T20:58:55;15.80;99.90
4293;DHT22;2160;51.172;6.808;2023-03-23T21:01:23;15.90;99.90
4293;DHT22;2160;51.172;6.808;2023-03-23T21:03:51;15.90;99.90
4293;DHT22;2160;51.172;6.808;2023-03-23T21:06:19;16.20;99.90
4293;DHT22;2160;51.172;6.808;2023-03-23T21:08:46;16.00;99.90
4293;DHT22;2160;51.172;6.808;2023-03-23T21:11:17;15.80;99.90
4293;DHT22;2160;51.172;6.808;2023-03-23T21:13:44;16.00;99.90
4293;DHT22;2160;51.172;6.808;2023-03-23T21:16:12;15.90;99.90
4293;DHT22;2160;51.172;6.808;2023-03-23T21:18:40;15.90;99.90
4293;DHT22;2160;51.172;6.808;2023-03-23T21:21:07;15.70;99.90
4293;DHT22;2160;51.172;6.808;2023-03-23T21:23:36;15.80;99.90
4293;DHT22;2160;51.172;6.808;2023-03-23T21:26:13;15.70;99.90
4293;DHT22;2160;51.172;6.808;2023-03-23T21:28:41;15.60;99.90
4293;DHT22;2160;51.172;6.808;2023-03-23T21:31:08;15.60;99.90
4293;DHT22;2160;51.172;6.808;2023-03-23T21:33:35;15.70;99.90
4293;DHT22;2160;51.172;6.808;2023-03-23T21:36:04;15.80;99.90
4293;DHT22;2160;51.172;6.808;2023-03-23T21:38:31;15.60;99.90
4293;DHT22;2160;51.172;6.808;2023-03-23T21:41:04;15.60;99.90
4293;DHT22;2160;51.172;6.808;2023-03-23T21:43:31;15.80;99.90
4293;DHT22;2160;51.172;6.808;2023-03-23T21:45:59;15.70;99.90
4293;DHT22;2160;51.172;6.808;2023-03-23T21:48:29;15.60;99.90
4293;DHT22;2160;51.172;6.808;2023-03-23T21:51:05;15.70;99.90
4293;DHT22;2160;51.172;6.808;2023-03-23T21:53:32;15.60;99.90
4293;DHT22;2160;51.172;6.808;2023-03-23T21:56:02;15.60;99.90
4293;DHT22;2160;51.172;6.808;2023-03-23T21:58:30;15.60;99.90
4293;DHT22;2160;51.172;6.808;2023-03-23T22:00:57;15.60;99.90
4293;DHT22;2160;51.172;6.808;2023-03-23T22:03:27;15.70;99.90
4293;DHT22;2160;51.172;6.808;2023-03-23T22:05:58;15.70;99.90
4293;DHT22;2160;51.172;6.808;2023-03-23T22:08:28;15.70;99.90
4293;DHT22;2160;51.172;6.808;2023-03-23T22:10:58;15.70;99.90
4293;DHT22;2160;51.172;6.808;2023-03-23T22:13:26;15.70;99.90
4293;DHT22;2160;51.172;6.808;2023-03-23T22:15:54;15.60;99.90
4293;DHT22;2160;51.172;6.808;2023-03-23T22:18:22;15.60;99.90
4293;DHT22;2160;51.172;6.808;2023-03-23T22:20:50;15.70;99.90
4293;DHT22;2160;51.172;6.808;2023-03-23T22:23:17;15.70;99.90
4293;DHT22;2160;51.172;6.808;2023-03-23T22:25:45;15.50;99.90
4293;DHT22;2160;51.172;6.808;2023-03-23T22:28:12;15.60;99.90
4293;DHT22;2160;51.172;6.808;2023-03-23T22:30:39;15.50;99.90
4293;DHT22;2160;51.172;6.808;2023-03-23T22:33:06;15.50;99.90
4293;DHT22;2160;51.172;6.808;2023-03-23T22:35:33;15.40;99.90
4293;DHT22;2160;51.172;6.808;2023-03-23T22:38:00;15.60;99.90
4293;DHT22;2160;51.172;6.808;2023-03-23T22:40:28;15.80;99.90
4293;DHT22;2160;51.172;6.808;2023-03-23T22:42:56;15.60;99.90
4293;DHT22;2160;51.172;6.808;2023-03-23T22:45:24;15.60;99.90
4293;DHT22;2160;51.172;6.808;2023-03-23T22:47:52;15.60;99.90
4293;DHT22;2160;51.172;6.808;2023-03-23T22:50:19;15.50;99.90
4293;DHT22;2160;51.172;6.808;2023-03-23T22:52:48;15.50;99.90
4293;DHT22;2160;51.172;6.808;2023-03-23T22:55:16;15.50;99.90
4293;DHT22;2160;51.172;6.808;2023-03-23T22:57:43;15.50;99.90